createdAt,value
2018-04-27T00:00:15.191Z,5.93
2018-04-27T00:02:43.478Z,5.80
2018-04-27T00:05:11.783Z,5.83
2018-04-27T00:07:39.967Z,6.27
2018-04-27T00:10:08.567Z,6.30
2018-04-27T00:12:36.842Z,6.43
2018-04-27T00:15:05.885Z,6.30
2018-04-27T00:17:34.219Z,6.13
2018-04-27T00:20:03.213Z,6.00
2018-04-27T00:22:32.355Z,5.37
2018-04-27T00:25:00.670Z,5.30
2018-04-27T00:27:28.897Z,6.13
2018-04-27T00:29:57.175Z,5.77
2018-04-27T00:32:25.466Z,5.67
2018-04-27T00:34:53.732Z,5.90
2018-04-27T00:37:22.417Z,5.97
2018-04-27T00:39:50.747Z,6.07
2018-04-27T00:42:19.433Z,5.60
2018-04-27T00:44:48.490Z,5.43
2018-04-27T00:47:16.726Z,5.40
2018-04-27T00:49:45.017Z,5.63
2018-04-27T00:52:13.263Z,5.33
2018-04-27T00:54:42.265Z,5.47
2018-04-27T00:57:10.513Z,4.97
2018-04-27T00:59:39.533Z,5.43
2018-04-27T01:02:07.798Z,5.40
2018-04-27T01:04:36.806Z,4.73
2018-04-27T01:07:05.071Z,5.50
2018-04-27T01:09:33.415Z,4.87
2018-04-27T01:12:01.654Z,5.37
2018-04-27T01:14:29.898Z,5.37
2018-04-27T01:16:58.151Z,5.60
2018-04-27T01:19:27.327Z,5.33
2018-04-27T01:21:55.550Z,5.10
2018-04-27T01:24:23.825Z,5.00
2018-04-27T01:26:52.065Z,5.40
2018-04-27T01:29:21.078Z,5.20
2018-04-27T01:31:49.345Z,5.00
2018-04-27T01:34:17.691Z,5.20
2018-04-27T01:36:45.936Z,5.77
2018-04-27T01:39:14.183Z,5.03
2018-04-27T01:41:42.434Z,5.67
2018-04-27T01:44:11.445Z,4.87
2018-04-27T01:46:39.713Z,4.93
2018-04-27T01:49:08.710Z,4.87
2018-04-27T01:51:36.960Z,4.70
2018-04-27T01:54:05.989Z,4.53
2018-04-27T01:56:34.289Z,4.83
2018-04-27T01:59:02.529Z,4.77
2018-04-27T02:01:30.813Z,4.50
2018-04-27T02:03:59.114Z,4.17
2018-04-27T02:06:27.451Z,4.17
2018-04-27T02:08:55.660Z,3.80
2018-04-27T02:11:23.887Z,3.30
2018-04-27T02:13:53.071Z,4.03
2018-04-27T02:16:21.322Z,3.10
2018-04-27T02:18:49.613Z,3.87
2018-04-27T02:21:17.866Z,3.27
2018-04-27T02:23:46.113Z,3.50
2018-04-27T02:26:14.358Z,3.43
2018-04-27T02:28:43.546Z,3.80
2018-04-27T02:31:12.539Z,3.63
2018-04-27T02:33:41.561Z,3.70
2018-04-27T02:36:09.799Z,3.47
2018-04-27T02:38:38.838Z,3.30
2018-04-27T02:41:07.087Z,3.43
2018-04-27T02:43:36.154Z,3.13
2018-04-27T02:46:04.420Z,3.60
2018-04-27T02:48:32.716Z,3.60
2018-04-27T02:51:01.726Z,3.47
2018-04-27T02:53:30.238Z,3.73
2018-04-27T02:55:58.499Z,3.77
2018-04-27T02:58:26.752Z,3.17
2018-04-27T03:00:55.006Z,3.63
2018-04-27T03:03:24.191Z,3.53
2018-04-27T03:05:52.428Z,3.57
2018-04-27T03:08:20.743Z,3.37
2018-04-27T03:10:49.015Z,3.50
2018-04-27T03:13:17.260Z,3.67
2018-04-27T03:15:45.510Z,3.40
2018-04-27T03:18:13.841Z,4.10
2018-04-27T03:20:42.106Z,4.10
2018-04-27T03:23:10.382Z,3.20
2018-04-27T03:25:38.631Z,4.37
2018-04-27T03:28:06.878Z,3.47
2018-04-27T03:30:35.218Z,3.33
2018-04-27T03:33:04.308Z,4.10
2018-04-27T03:35:32.547Z,3.77
2018-04-27T03:38:00.798Z,3.93
2018-04-27T03:40:29.058Z,3.77
2018-04-27T03:42:57.663Z,3.37
2018-04-27T03:45:26.000Z,4.37
2018-04-27T03:47:54.250Z,3.80
2018-04-27T03:50:22.647Z,3.73
2018-04-27T03:52:50.915Z,3.63
2018-04-27T03:55:19.201Z,3.60
2018-04-27T03:57:47.475Z,3.50
2018-04-27T04:00:29.197Z,4.13
2018-04-27T04:03:10.030Z,3.40
2018-04-27T04:05:38.265Z,3.53
2018-04-27T04:08:06.551Z,3.60
2018-04-27T04:10:34.792Z,3.47
2018-04-27T04:13:03.100Z,3.53
2018-04-27T04:15:31.338Z,4.50
2018-04-27T04:17:59.675Z,3.77
2018-04-27T04:20:27.937Z,4.10
2018-04-27T04:22:56.249Z,4.57
2018-04-27T04:25:25.280Z,3.73
2018-04-27T04:27:53.525Z,3.70
2018-04-27T04:30:21.869Z,4.00
2018-04-27T04:32:50.246Z,4.17
2018-04-27T04:35:18.520Z,3.60
2018-04-27T04:37:46.798Z,4.22
2018-04-27T04:40:15.073Z,4.03
2018-04-27T04:42:43.309Z,3.30
2018-04-27T04:45:11.581Z,3.50
2018-04-27T04:47:41.390Z,3.43
2018-04-27T04:50:10.198Z,3.58
2018-04-27T04:52:38.557Z,3.50
2018-04-27T04:55:07.076Z,3.40
2018-04-27T04:57:35.349Z,3.20
2018-04-27T05:00:03.618Z,3.27
2018-04-27T05:02:31.900Z,3.77
2018-04-27T05:05:00.210Z,3.73
2018-04-27T05:07:29.255Z,3.47
2018-04-27T05:09:57.505Z,4.12
2018-04-27T05:12:25.819Z,4.10
2018-04-27T05:14:54.095Z,3.50
2018-04-27T05:17:22.572Z,3.43
2018-04-27T05:19:54.138Z,3.43
2018-04-27T05:22:23.144Z,4.27
2018-04-27T05:24:51.525Z,4.70
2018-04-27T05:27:19.764Z,5.73
2018-04-27T05:29:48.116Z,6.00
2018-04-27T05:32:17.065Z,5.80
2018-04-27T05:34:45.387Z,6.13
2018-04-27T05:37:13.649Z,6.43
2018-04-27T05:39:42.880Z,5.60
2018-04-27T05:42:11.911Z,6.37
2018-04-27T05:44:40.356Z,5.27
2018-04-27T05:47:08.578Z,6.03
2018-04-27T05:49:36.950Z,4.87
2018-04-27T05:52:05.287Z,4.60
2018-04-27T05:54:33.571Z,4.87
2018-04-27T05:57:02.597Z,4.77
2018-04-27T05:59:30.869Z,3.83
2018-04-27T06:01:59.194Z,3.90
2018-04-27T06:04:27.494Z,3.90
2018-04-27T06:06:56.510Z,4.27
2018-04-27T06:09:24.813Z,3.87
2018-04-27T06:11:53.129Z,3.50
2018-04-27T06:14:21.445Z,4.07
2018-04-27T06:16:49.826Z,3.80
2018-04-27T06:19:18.082Z,4.17
2018-04-27T06:21:46.380Z,3.40
2018-04-27T06:24:14.611Z,4.23
2018-04-27T06:26:43.692Z,4.13
2018-04-27T06:29:11.916Z,3.73
2018-04-27T06:31:40.182Z,3.87
2018-04-27T06:34:08.444Z,3.47
2018-04-27T06:36:37.482Z,3.93
2018-04-27T06:39:05.783Z,3.93
2018-04-27T06:41:34.058Z,4.10
2018-04-27T06:44:02.336Z,3.77
2018-04-27T06:46:30.590Z,4.07
2018-04-27T06:48:59.049Z,4.70
2018-04-27T06:51:27.444Z,3.60
2018-04-27T06:53:55.744Z,4.23
2018-04-27T06:56:24.018Z,3.97
2018-04-27T06:58:52.317Z,3.87
2018-04-27T07:01:20.570Z,4.87
2018-04-27T07:03:49.589Z,4.43
2018-04-27T07:06:17.973Z,4.23
2018-04-27T07:08:46.275Z,4.30
2018-04-27T07:11:14.539Z,5.03
2018-04-27T07:13:42.838Z,4.87
2018-04-27T07:16:11.089Z,5.30
2018-04-27T07:18:39.366Z,3.57
2018-04-27T07:21:07.692Z,3.83
2018-04-27T07:23:37.441Z,4.33
2018-04-27T07:26:05.750Z,3.40
2018-04-27T07:28:34.065Z,3.90
2018-04-27T07:31:03.139Z,3.07
2018-04-27T07:33:32.183Z,3.37
2018-04-27T07:36:01.459Z,3.73
2018-04-27T07:38:30.467Z,3.27
2018-04-27T07:40:58.802Z,3.50
2018-04-27T07:43:27.047Z,3.30
2018-04-27T07:45:55.304Z,2.97
2018-04-27T07:48:23.551Z,2.70
2018-04-27T07:50:52.587Z,3.23
2018-04-27T07:53:20.852Z,2.93
2018-04-27T07:55:49.094Z,3.63
2018-04-27T07:58:18.096Z,2.80
2018-04-27T08:00:46.434Z,3.20
2018-04-27T08:03:14.646Z,3.03
2018-04-27T08:05:42.948Z,3.27
2018-04-27T08:08:11.257Z,3.40
2018-04-27T08:10:40.351Z,3.37
2018-04-27T08:13:08.594Z,3.60
2018-04-27T08:15:36.923Z,3.60
2018-04-27T08:18:05.255Z,4.33
2018-04-27T08:20:33.490Z,3.43
2018-04-27T08:23:01.771Z,3.20
2018-04-27T08:25:30.104Z,3.83
2018-04-27T08:27:58.383Z,3.30
2018-04-27T08:30:26.698Z,3.83
2018-04-27T08:32:55.078Z,3.40
2018-04-27T08:35:23.341Z,3.47
2018-04-27T08:37:51.598Z,2.90
2018-04-27T08:40:20.681Z,3.73
2018-04-27T08:42:49.776Z,3.40
2018-04-27T08:45:18.050Z,3.73
2018-04-27T08:47:46.314Z,3.97
2018-04-27T08:50:15.361Z,3.57
2018-04-27T08:52:43.689Z,4.20
2018-04-27T08:55:11.944Z,4.40
2018-04-27T08:57:41.130Z,4.30
2018-04-27T09:00:09.435Z,4.47
2018-04-27T09:02:37.920Z,4.10
2018-04-27T09:05:06.233Z,3.43
2018-04-27T09:07:34.670Z,3.60
2018-04-27T09:10:02.962Z,3.27
2018-04-27T09:12:32.046Z,3.33
2018-04-27T09:15:00.422Z,3.40
2018-04-27T09:17:30.041Z,2.97
2018-04-27T09:19:58.503Z,2.80
2018-04-27T09:22:26.787Z,3.13
2018-04-27T09:24:55.463Z,2.87
2018-04-27T09:27:23.694Z,2.77
2018-04-27T09:29:52.014Z,2.53
2018-04-27T09:32:21.232Z,2.80
2018-04-27T09:34:49.489Z,2.87
2018-04-27T09:37:17.746Z,2.80
2018-04-27T09:39:46.033Z,2.50
2018-04-27T09:42:14.279Z,2.23
2018-04-27T09:44:42.577Z,2.70
2018-04-27T09:47:10.961Z,2.17
2018-04-27T09:49:39.340Z,2.80
2018-04-27T09:52:07.574Z,2.40
2018-04-27T09:54:35.857Z,2.63
2018-04-27T09:57:04.170Z,2.50
2018-04-27T09:59:33.358Z,2.65
2018-04-27T10:02:01.602Z,2.30
2018-04-27T10:04:30.034Z,2.27
2018-04-27T10:06:59.066Z,2.60
2018-04-27T10:09:27.313Z,2.80
2018-04-27T10:11:55.619Z,3.03
2018-04-27T10:14:24.050Z,2.00
2018-04-27T10:16:53.102Z,2.23
2018-04-27T10:19:21.503Z,2.50
2018-04-27T10:21:49.776Z,2.20
2018-04-27T10:24:18.033Z,2.10
2018-04-27T10:26:46.310Z,2.10
2018-04-27T10:29:14.694Z,2.23
2018-04-27T10:31:43.061Z,1.87
2018-04-27T10:34:11.312Z,2.03
2018-04-27T10:36:39.611Z,2.10
2018-04-27T10:39:07.845Z,2.47
2018-04-27T10:41:36.105Z,2.27
2018-04-27T10:44:05.150Z,1.90
2018-04-27T10:46:33.459Z,2.20
2018-04-27T10:49:01.690Z,2.00
2018-04-27T10:51:30.584Z,1.97
2018-04-27T10:54:00.017Z,2.10
2018-04-27T10:56:28.225Z,2.07
2018-04-27T10:58:56.502Z,2.50
2018-04-27T11:01:24.800Z,2.53
2018-04-27T11:03:54.035Z,2.20
2018-04-27T11:06:22.288Z,2.20
2018-04-27T11:08:50.601Z,2.77
2018-04-27T11:11:19.693Z,2.13
2018-04-27T11:13:47.948Z,2.20
2018-04-27T11:16:16.189Z,2.30
2018-04-27T11:18:44.509Z,2.40
2018-04-27T11:21:12.792Z,2.67
2018-04-27T11:23:41.060Z,2.50
2018-04-27T11:26:09.333Z,2.30
2018-04-27T11:28:37.593Z,1.97
2018-04-27T11:31:05.877Z,2.13
2018-04-27T11:33:34.111Z,1.90
2018-04-27T11:36:02.433Z,1.80
2018-04-27T11:38:30.658Z,1.90
2018-04-27T11:40:59.097Z,1.70
2018-04-27T11:43:28.147Z,2.00
2018-04-27T11:45:56.401Z,1.87
2018-04-27T11:48:24.655Z,1.87
2018-04-27T11:50:52.938Z,1.90
2018-04-27T11:53:21.994Z,1.63
2018-04-27T11:55:50.269Z,2.40
2018-04-27T11:58:18.579Z,1.80
2018-04-27T12:00:46.991Z,1.97
2018-04-27T12:03:15.241Z,1.73
2018-04-27T12:05:43.534Z,2.07
2018-04-27T12:08:11.822Z,1.40
2018-04-27T12:10:40.058Z,1.67
2018-04-27T12:13:09.317Z,1.67
2018-04-27T12:15:37.526Z,1.83
2018-04-27T12:18:05.855Z,1.77
2018-04-27T12:20:34.126Z,1.83
2018-04-27T12:23:02.521Z,1.90
2018-04-27T12:25:30.802Z,1.40
2018-04-27T12:28:00.094Z,2.10
2018-04-27T12:30:28.361Z,2.10
2018-04-27T12:32:56.666Z,1.60
2018-04-27T12:35:25.250Z,2.27
2018-04-27T12:37:54.297Z,1.80
2018-04-27T12:40:22.533Z,1.60
2018-04-27T12:42:51.598Z,1.70
2018-04-27T12:45:19.822Z,1.93
2018-04-27T12:47:48.243Z,2.40
2018-04-27T12:50:16.649Z,1.83
2018-04-27T12:52:45.647Z,2.00
2018-04-27T12:55:13.894Z,1.23
2018-04-27T12:57:42.189Z,2.20
2018-04-27T13:00:10.537Z,1.90
2018-04-27T13:02:39.134Z,2.50
2018-04-27T13:05:07.410Z,2.13
2018-04-27T13:07:37.290Z,1.87
2018-04-27T13:10:05.582Z,2.00
2018-04-27T13:12:33.922Z,1.83
2018-04-27T13:15:03.186Z,2.17
2018-04-27T13:17:32.294Z,1.80
2018-04-27T13:20:00.571Z,2.40
2018-04-27T13:22:28.906Z,2.20
2018-04-27T13:24:57.970Z,1.70
2018-04-27T13:27:26.245Z,1.80
2018-04-27T13:29:54.513Z,1.80
2018-04-27T13:32:22.876Z,2.17
2018-04-27T13:34:51.131Z,1.90
2018-04-27T13:37:20.141Z,2.07
2018-04-27T13:39:48.455Z,2.43
2018-04-27T13:42:16.789Z,2.10
2018-04-27T13:44:45.039Z,2.27
2018-04-27T13:47:14.209Z,1.90
2018-04-27T13:49:42.489Z,1.97
2018-04-27T13:52:11.561Z,1.97
2018-04-27T13:54:39.805Z,1.70
2018-04-27T13:57:08.142Z,2.40
2018-04-27T13:59:37.167Z,2.00
2018-04-27T14:02:05.594Z,2.00
2018-04-27T14:04:34.649Z,2.10
2018-04-27T14:07:03.013Z,2.10
2018-04-27T14:09:31.497Z,2.03
2018-04-27T14:12:00.483Z,2.37
2018-04-27T14:14:28.742Z,1.90
2018-04-27T14:16:57.737Z,1.83
2018-04-27T14:19:26.816Z,2.33
2018-04-27T14:21:55.819Z,2.30
2018-04-27T14:24:25.705Z,1.97
2018-04-27T14:26:53.994Z,2.00
2018-04-27T14:29:23.792Z,1.83
2018-04-27T14:31:52.074Z,2.33
2018-04-27T14:34:21.841Z,2.10
2018-04-27T14:36:50.173Z,1.80
2018-04-27T14:39:19.196Z,1.73
2018-04-27T14:41:47.451Z,1.97
2018-04-27T14:44:15.793Z,2.00
2018-04-27T14:46:44.851Z,2.23
2018-04-27T14:49:13.276Z,2.20
2018-04-27T14:51:41.637Z,1.93
2018-04-27T14:54:09.951Z,1.60
2018-04-27T14:56:38.298Z,1.73
2018-04-27T14:59:06.579Z,2.40
2018-04-27T15:01:35.042Z,2.10
2018-04-27T15:04:03.327Z,2.17
2018-04-27T15:06:32.409Z,1.80
2018-04-27T15:09:01.519Z,2.07
2018-04-27T15:11:29.765Z,2.23
2018-04-27T15:13:58.076Z,2.27
2018-04-27T15:16:27.137Z,2.07
2018-04-27T15:18:55.389Z,2.20
2018-04-27T15:21:23.663Z,2.27
2018-04-27T15:23:51.930Z,2.20
2018-04-27T15:26:20.233Z,2.10
2018-04-27T15:28:48.610Z,2.30
2018-04-27T15:31:18.069Z,2.00
2018-04-27T15:33:47.142Z,1.93
2018-04-27T15:36:15.414Z,1.90
2018-04-27T15:38:44.427Z,1.93
2018-04-27T15:41:12.879Z,2.53
2018-04-27T15:43:41.895Z,2.50
2018-04-27T15:46:10.157Z,2.17
2018-04-27T15:48:39.179Z,1.83
2018-04-27T15:51:07.453Z,2.33
2018-04-27T15:53:35.733Z,2.00
2018-04-27T15:56:04.730Z,2.60
2018-04-27T15:58:33.010Z,2.27
2018-04-27T16:01:01.263Z,2.07
2018-04-27T16:03:29.534Z,1.80
2018-04-27T16:05:58.814Z,2.00
2018-04-27T16:08:27.033Z,1.80
2018-04-27T16:10:55.319Z,2.13
2018-04-27T16:16:30.051Z,2.27
2018-04-27T16:18:59.090Z,2.17
2018-04-27T16:21:27.318Z,1.80
2018-04-27T16:23:55.888Z,2.00
2018-04-27T16:26:25.970Z,2.23
2018-04-27T16:28:55.075Z,2.20
2018-04-27T16:31:23.537Z,2.10
2018-04-27T16:33:52.598Z,2.27
2018-04-27T16:36:20.992Z,2.43
2018-04-27T16:38:49.258Z,2.17
2018-04-27T16:41:17.575Z,2.40
2018-04-27T16:43:46.611Z,3.47
2018-04-27T16:46:14.873Z,2.57
2018-04-27T16:48:43.331Z,2.50
2018-04-27T16:51:11.565Z,2.80
2018-04-27T16:53:39.977Z,2.70
2018-04-27T16:56:08.332Z,2.27
2018-04-27T16:58:36.710Z,2.03
2018-04-27T17:01:05.756Z,2.30
2018-04-27T17:03:34.224Z,2.00
2018-04-27T17:06:02.433Z,2.23
2018-04-27T17:08:30.706Z,2.50
2018-04-27T17:10:58.953Z,2.80
2018-04-27T17:13:27.214Z,2.90
2018-04-27T17:15:55.522Z,2.43
2018-04-27T17:18:23.777Z,2.60
2018-04-27T17:20:52.827Z,2.63
2018-04-27T17:23:21.150Z,2.60
2018-04-27T17:25:50.279Z,2.10
2018-04-27T17:28:18.714Z,2.40
2018-04-27T17:30:47.371Z,2.60
2018-04-27T17:33:16.385Z,2.47
2018-04-27T17:35:44.732Z,2.77
2018-04-27T17:38:13.026Z,2.73
2018-04-27T17:40:41.344Z,2.67
2018-04-27T17:43:09.593Z,2.40
2018-04-27T17:45:37.942Z,2.93
2018-04-27T17:48:06.198Z,2.33
2018-04-27T17:50:34.697Z,2.97
2018-04-27T17:53:03.819Z,3.70
2018-04-27T17:55:32.093Z,2.97
2018-04-27T17:58:01.916Z,3.00
2018-04-27T18:00:30.155Z,2.60
2018-04-27T18:02:58.413Z,2.70
2018-04-27T18:05:26.848Z,2.40
2018-04-27T18:07:55.186Z,2.93
2018-04-27T18:10:23.547Z,2.90
2018-04-27T18:12:51.785Z,2.70
2018-04-27T18:15:20.246Z,2.80
2018-04-27T18:17:48.620Z,2.80
2018-04-27T18:20:16.850Z,2.80
2018-04-27T18:22:45.168Z,2.60
2018-04-27T18:25:13.458Z,2.47
2018-04-27T18:27:41.810Z,2.40
2018-04-27T18:30:10.039Z,2.70
2018-04-27T18:32:39.276Z,2.67
2018-04-27T18:35:08.286Z,2.80
2018-04-27T18:37:36.577Z,2.87
2018-04-27T18:40:04.892Z,2.60
2018-04-27T18:42:33.171Z,2.40
2018-04-27T18:45:02.232Z,2.80
2018-04-27T18:47:32.025Z,2.87
2018-04-27T18:50:00.314Z,2.70
2018-04-27T18:52:28.831Z,3.00
2018-04-27T18:54:57.645Z,2.67
2018-04-27T18:57:25.998Z,2.80
2018-04-27T18:59:55.113Z,2.70
2018-04-27T19:02:24.288Z,2.60
2018-04-27T19:04:52.704Z,2.87
2018-04-27T19:07:21.754Z,2.73
2018-04-27T19:09:51.563Z,3.23
2018-04-27T19:12:19.835Z,2.77
2018-04-27T19:14:48.127Z,2.83
2018-04-27T19:17:16.423Z,3.60
2018-04-27T19:19:44.673Z,7.03
2018-04-27T19:22:17.650Z,6.20
2018-04-27T19:24:46.755Z,6.90
2018-04-27T19:27:15.195Z,4.97
2018-04-27T19:29:43.506Z,6.23
2018-04-27T19:32:12.631Z,6.27
2018-04-27T19:34:41.788Z,7.53
2018-04-27T19:37:10.072Z,7.20
2018-04-27T19:39:39.101Z,6.67
2018-04-27T19:42:07.449Z,3.40
2018-04-27T19:44:36.540Z,3.40
2018-04-27T19:47:04.846Z,3.10
2018-04-27T19:49:33.246Z,3.13
2018-04-27T19:52:01.466Z,3.40
2018-04-27T19:54:30.512Z,4.17
2018-04-27T19:56:58.789Z,4.00
2018-04-27T19:59:27.050Z,4.20
2018-04-27T20:01:55.333Z,4.73
2018-04-27T20:04:23.586Z,4.10
2018-04-27T20:06:51.848Z,5.63
2018-04-27T20:09:20.200Z,5.00
2018-04-27T20:11:48.488Z,5.13
2018-04-27T20:14:28.725Z,4.30
2018-04-27T20:17:03.601Z,4.13
2018-04-27T20:19:34.494Z,4.73
2018-04-27T20:22:21.614Z,4.60
2018-04-27T20:24:49.898Z,7.33
2018-04-27T20:27:18.931Z,4.23
2018-04-27T20:29:48.071Z,4.97
2018-04-27T20:32:16.334Z,4.07
2018-04-27T20:34:46.125Z,4.53
2018-04-27T20:37:14.437Z,5.40
2018-04-27T20:39:42.655Z,4.33
2018-04-27T20:42:10.945Z,4.50
2018-04-27T20:44:39.226Z,4.80
2018-04-27T20:47:07.589Z,5.37
2018-04-27T20:49:36.762Z,5.40
2018-04-27T20:52:05.214Z,5.47
2018-04-27T20:54:34.400Z,5.50
2018-04-27T20:57:03.672Z,4.67
2018-04-27T20:59:31.953Z,5.90
2018-04-27T21:02:00.250Z,5.23
2018-04-27T21:04:28.514Z,4.73
2018-04-27T21:06:56.880Z,4.47
2018-04-27T21:09:25.180Z,4.53
2018-04-27T21:11:53.444Z,4.83
2018-04-27T21:14:21.739Z,4.93
2018-04-27T21:16:50.210Z,5.07
2018-04-27T21:19:19.238Z,5.60
2018-04-27T21:21:47.496Z,5.23
2018-04-27T21:24:15.786Z,5.97
2018-04-27T21:26:44.122Z,5.53
2018-04-27T21:29:20.255Z,5.37
2018-04-27T21:31:48.560Z,6.10
2018-04-27T21:34:17.296Z,5.00
2018-04-27T21:36:47.304Z,5.60
2018-04-27T21:39:16.591Z,5.60
2018-04-27T21:41:49.097Z,5.07
2018-04-27T21:44:23.342Z,4.40
2018-04-27T21:46:53.133Z,5.10
2018-04-27T21:49:25.248Z,5.30
2018-04-27T21:51:54.534Z,4.90
2018-04-27T21:54:23.837Z,5.53
2018-04-27T21:57:12.906Z,4.47
2018-04-27T21:59:46.055Z,5.37
2018-04-27T22:02:16.373Z,4.77
2018-04-27T22:04:44.693Z,4.40
2018-04-27T22:07:18.909Z,4.00
2018-04-27T22:09:53.118Z,4.50
2018-04-27T22:12:22.246Z,4.10
2018-04-27T22:14:50.508Z,4.53
2018-04-27T22:17:28.562Z,4.70
2018-04-27T22:20:11.702Z,5.00
2018-04-27T22:22:40.803Z,4.50
2018-04-27T22:25:20.772Z,3.87
2018-04-27T22:27:50.760Z,4.20
2018-04-27T22:30:31.069Z,4.73
2018-04-27T22:32:59.333Z,4.20
2018-04-27T22:35:34.734Z,3.80
2018-04-27T22:38:03.194Z,4.10
2018-04-27T22:40:38.251Z,3.97
2018-04-27T22:43:17.858Z,2.93
2018-04-27T22:48:44.121Z,3.00
2018-04-27T22:51:14.225Z,3.33
2018-04-27T22:53:43.553Z,3.00
2018-04-27T22:59:08.889Z,2.90
2018-04-27T23:01:37.401Z,3.00
2018-04-27T23:04:05.723Z,2.90
2018-04-27T23:06:34.081Z,2.40
2018-04-27T23:09:02.324Z,2.47
2018-04-27T23:11:32.064Z,2.47
2018-04-27T23:14:19.045Z,2.70
2018-04-27T23:16:49.737Z,2.60
2018-04-27T23:19:17.985Z,2.27
2018-04-27T23:22:00.938Z,2.73
2018-04-27T23:24:29.160Z,2.90
2018-04-27T23:26:59.020Z,2.53
2018-04-27T23:29:28.040Z,2.60
2018-04-27T23:31:56.338Z,2.43
2018-04-27T23:34:24.615Z,2.57
2018-04-27T23:36:53.799Z,2.80
2018-04-27T23:39:22.061Z,2.77
2018-04-27T23:41:50.339Z,2.33
2018-04-27T23:44:19.346Z,2.27
2018-04-27T23:46:47.600Z,2.50
2018-04-27T23:49:16.619Z,2.73
2018-04-27T23:51:46.678Z,2.43
2018-04-27T23:54:14.896Z,1.93
2018-04-27T23:56:45.829Z,2.27
2018-04-27T23:59:20.946Z,2.40
